Chatham, Mississippi
Current Conditions -  °F | °C
As of 4:53 AM on Friday 28 Nov 2014 (Local Time) from KGLH Reporting Station
Clear Clear  
Wind Chill: 30°   Ceiling: Unl
Heat Index: 30°   Visibility: 7mi
Dew Point: 27°   Wind: 3mph
Humidity: 88%   Direction: 140°SE
Pressure: 30.42"   Gusts: NA
Location:  33.1°N, 91.1°W
Report Text: KGLH 281053Z AUTO 14003KT 7SM CLR M01/M03 A3042 RMK AO2 SLP311 T10111028
Loading
Personal Weather Stations






























Interactive Weather Map New forecast layout! Learn more

10-Day Weather Forecast

Advertisements
Track Severe Weather on mobile